Air Navigation Services of Czech Republic
Airport: LKKV Updated:  18.07.2018 18:01:07  UTC
 METAR LKKV 18.07. 18:00 ...
METAR LKKV 181800Z 31009KT 280V340 CAVOK 23/07 Q1016 RMK REG QNH 1009=
 TAF LKKV 18.07. 17:00 ...
TAF LKKV 181700Z 1818/2000 32010KT CAVOK      BECMG 1818/1820 34005KT      TEMPO 1900/1907 VRB02KT      BECMG 1919/1921 VRB02KT=